createdAt,value
2019-06-10T00:01:57.442Z,7.78
2019-06-10T00:04:43.370Z,10.68
2019-06-10T00:07:28.355Z,7.10
2019-06-10T00:10:13.724Z,5.53
2019-06-10T00:13:01.008Z,4.85
2019-06-10T00:15:45.472Z,10.18
2019-06-10T00:18:40.701Z,10.03
2019-06-10T00:21:17.283Z,8.15
2019-06-10T00:24:02.609Z,9.23
2019-06-10T00:26:51.036Z,7.35
2019-06-10T00:29:35.893Z,7.35
2019-06-10T00:32:21.527Z,7.47
2019-06-10T00:35:07.764Z,10.08
2019-06-10T00:37:52.975Z,9.10
2019-06-10T00:40:37.689Z,8.63
2019-06-10T00:43:22.498Z,5.95
2019-06-10T00:46:07.766Z,8.05
2019-06-10T00:48:53.790Z,6.37
2019-06-10T00:51:41.458Z,10.45
2019-06-10T00:54:26.287Z,7.10
2019-06-10T00:57:12.364Z,7.05
2019-06-10T00:59:57.881Z,9.08
2019-06-10T01:02:42.839Z,9.20
2019-06-10T01:05:27.636Z,8.58
2019-06-10T01:08:15.564Z,7.65
2019-06-10T01:11:04.124Z,9.68
2019-06-10T01:13:46.145Z,8.90
2019-06-10T01:16:31.764Z,12.03
2019-06-10T01:19:16.814Z,8.40
2019-06-10T01:22:01.672Z,7.60
2019-06-10T01:24:46.936Z,10.85
2019-06-10T01:27:31.761Z,8.53
2019-06-10T01:30:22.588Z,9.60
2019-06-10T01:33:03.611Z,8.63
2019-06-10T01:35:48.475Z,7.42
2019-06-10T01:38:33.294Z,5.60
2019-06-10T01:41:21.155Z,6.85
2019-06-10T01:44:06.476Z,6.67
2019-06-10T01:46:51.686Z,6.62
2019-06-10T01:49:36.758Z,8.00
2019-06-10T01:52:21.597Z,7.12
2019-06-10T01:55:07.561Z,5.33
2019-06-10T01:57:52.745Z,5.60
2019-06-10T02:00:57.818Z,7.35
2019-06-10T02:03:42.445Z,7.58
2019-06-10T02:06:31.483Z,7.72
2019-06-10T02:09:17.194Z,7.65
2019-06-10T02:12:03.053Z,11.10
2019-06-10T02:14:48.054Z,9.25
2019-06-10T02:17:32.793Z,8.65
2019-06-10T02:20:18.474Z,8.73
2019-06-10T02:23:04.319Z,7.97
2019-06-10T02:25:51.270Z,8.98
2019-06-10T02:28:36.641Z,12.60
2019-06-10T02:31:30.107Z,9.58
2019-06-10T02:34:08.690Z,12.68
2019-06-10T02:36:54.023Z,11.18
2019-06-10T02:39:39.405Z,7.08
2019-06-10T02:42:30.707Z,10.32
2019-06-10T02:45:18.317Z,9.93
2019-06-10T02:48:03.908Z,12.35
2019-06-10T02:50:54.001Z,7.92
2019-06-10T02:53:38.242Z,8.25
2019-06-10T02:56:30.004Z,11.63
2019-06-10T02:59:13.070Z,9.90
2019-06-10T03:01:57.123Z,9.28
2019-06-10T03:04:43.343Z,6.78
2019-06-10T03:07:31.088Z,8.73
2019-06-10T03:10:16.320Z,8.93
2019-06-10T03:13:05.286Z,6.97
2019-06-10T03:15:52.311Z,8.43
2019-06-10T03:18:37.542Z,9.70
2019-06-10T03:21:24.241Z,11.05
2019-06-10T03:24:09.190Z,10.58
2019-06-10T03:26:54.551Z,7.60
2019-06-10T03:29:39.205Z,7.65
2019-06-10T03:32:32.611Z,11.78
2019-06-10T03:35:13.224Z,8.40
2019-06-10T03:37:58.242Z,12.05
2019-06-10T03:40:43.457Z,9.45
2019-06-10T03:43:28.463Z,10.48
2019-06-10T03:46:13.712Z,13.35
2019-06-10T03:48:59.098Z,12.07
2019-06-10T03:51:43.785Z,8.65
2019-06-10T03:54:29.561Z,9.38
2019-06-10T03:57:14.969Z,9.83
2019-06-10T04:00:01.974Z,6.55
2019-06-10T04:02:46.649Z,7.85
2019-06-10T04:05:33.164Z,7.67
2019-06-10T04:08:19.421Z,8.73
2019-06-10T04:11:04.453Z,7.90
2019-06-10T04:13:49.490Z,8.88
2019-06-10T04:16:34.268Z,7.70
2019-06-10T04:19:19.641Z,7.42
2019-06-10T04:22:04.246Z,9.28
2019-06-10T04:24:49.125Z,11.73
2019-06-10T04:27:33.821Z,14.47
2019-06-10T04:30:23.204Z,14.45
2019-06-10T04:33:07.497Z,9.70
2019-06-10T04:35:52.281Z,20.68
2019-06-10T04:38:37.146Z,16.82
2019-06-10T04:41:23.450Z,10.23
2019-06-10T04:44:08.622Z,8.73
2019-06-10T04:46:53.646Z,10.50
2019-06-10T04:49:38.530Z,9.85
2019-06-10T04:52:25.148Z,10.70
2019-06-10T04:55:12.635Z,11.03
2019-06-10T04:57:57.857Z,8.08
2019-06-10T05:00:42.977Z,8.85
2019-06-10T05:03:28.360Z,10.45
2019-06-10T05:06:14.334Z,9.50
2019-06-10T05:08:59.186Z,12.30
2019-06-10T05:11:43.958Z,9.05
2019-06-10T05:14:30.295Z,13.35
2019-06-10T05:17:15.719Z,12.30
2019-06-10T05:20:02.529Z,9.50
2019-06-10T05:22:47.533Z,12.95
2019-06-10T05:25:32.727Z,12.23
2019-06-10T05:28:18.136Z,8.83
2019-06-10T05:31:03.112Z,9.90
2019-06-10T05:33:48.234Z,10.70
2019-06-10T05:36:34.602Z,10.43
2019-06-10T05:39:20.998Z,10.05
2019-06-10T05:42:07.000Z,10.90
2019-06-10T05:44:52.487Z,10.05
2019-06-10T05:47:37.428Z,9.48
2019-06-10T05:50:23.712Z,12.78
2019-06-10T05:53:09.178Z,9.50
2019-06-10T05:55:54.093Z,9.65
2019-06-10T05:58:38.873Z,9.08
2019-06-10T06:01:24.537Z,11.70
2019-06-10T06:04:12.646Z,7.78
2019-06-10T06:06:57.674Z,8.35
2019-06-10T06:09:42.741Z,10.93
2019-06-10T06:12:29.105Z,8.53
2019-06-10T06:15:14.965Z,8.55
2019-06-10T06:18:07.198Z,7.72
2019-06-10T06:20:46.470Z,6.22
2019-06-10T06:23:33.885Z,10.70
2019-06-10T06:26:18.081Z,9.63
2019-06-10T06:29:04.862Z,11.30
2019-06-10T06:31:52.103Z,11.30
2019-06-10T06:34:38.687Z,7.03
2019-06-10T06:37:23.425Z,10.32
2019-06-10T06:40:08.634Z,12.00
2019-06-10T06:42:53.617Z,8.00
2019-06-10T06:45:39.000Z,6.22
2019-06-10T06:48:24.238Z,6.47
2019-06-10T06:51:08.991Z,7.40
2019-06-10T06:53:56.232Z,8.10
2019-06-10T06:56:41.084Z,6.20
2019-06-10T06:59:27.436Z,6.97
2019-06-10T07:02:12.491Z,6.45
2019-06-10T07:04:57.803Z,7.15
2019-06-10T07:07:43.464Z,7.65
2019-06-10T07:10:30.935Z,5.42
2019-06-10T07:13:16.573Z,8.53
2019-06-10T07:16:02.925Z,6.58
2019-06-10T07:18:50.288Z,4.65
2019-06-10T07:21:55.721Z,4.62
2019-06-10T07:24:23.164Z,7.95
2019-06-10T07:27:08.293Z,7.00
2019-06-10T07:29:53.221Z,3.98
2019-06-10T07:32:39.204Z,8.10
2019-06-10T07:35:25.089Z,4.08
2019-06-10T07:38:12.235Z,2.85
2019-06-10T07:40:57.159Z,4.97
2019-06-10T07:43:48.975Z,3.95
2019-06-10T07:46:28.905Z,3.90
2019-06-10T07:49:13.690Z,2.77
2019-06-10T07:52:14.882Z,3.45
2019-06-10T07:54:49.294Z,3.83
2019-06-10T07:57:37.502Z,3.42
2019-06-10T08:00:22.970Z,5.78
2019-06-10T08:03:07.628Z,7.17
2019-06-10T08:05:52.692Z,4.37
2019-06-10T08:08:38.840Z,2.15
2019-06-10T08:11:24.356Z,4.42
2019-06-10T08:14:09.549Z,3.05
2019-06-10T08:16:54.327Z,3.05
2019-06-10T08:19:42.845Z,4.35
2019-06-10T08:22:33.440Z,3.85
2019-06-10T08:25:13.325Z,5.35
2019-06-10T08:27:58.675Z,5.33
2019-06-10T08:30:46.128Z,4.95
2019-06-10T08:33:33.112Z,3.87
2019-06-10T08:36:18.621Z,5.78
2019-06-10T08:39:05.374Z,2.30
2019-06-10T08:41:52.676Z,3.35
2019-06-10T08:44:37.148Z,2.90
2019-06-10T08:47:22.921Z,4.95
2019-06-10T08:50:08.149Z,2.80
2019-06-10T08:53:09.037Z,3.45
2019-06-10T08:55:42.872Z,4.87
2019-06-10T08:58:27.109Z,3.12
2019-06-10T09:01:13.285Z,4.22
2019-06-10T09:03:58.763Z,2.52
2019-06-10T09:06:48.791Z,4.25
2019-06-10T09:09:33.063Z,8.48
2019-06-10T09:12:30.403Z,3.67
2019-06-10T09:15:05.627Z,3.52
2019-06-10T09:17:55.251Z,3.80
2019-06-10T09:20:40.317Z,4.45
2019-06-10T09:23:25.695Z,3.40
2019-06-10T09:26:12.525Z,3.37
2019-06-10T09:28:57.963Z,4.22
2019-06-10T09:31:46.755Z,4.80
2019-06-10T09:34:29.139Z,4.25
2019-06-10T09:37:14.224Z,5.87
2019-06-10T09:39:59.862Z,3.98
2019-06-10T09:42:48.134Z,3.60
2019-06-10T09:45:33.198Z,4.33
2019-06-10T09:48:22.705Z,6.83
2019-06-10T09:51:08.345Z,5.35
2019-06-10T09:54:02.441Z,4.83
2019-06-10T09:56:42.771Z,2.77
2019-06-10T09:59:26.893Z,4.80
2019-06-10T10:02:12.579Z,1.98
2019-06-10T10:04:58.542Z,4.37
2019-06-10T10:07:46.988Z,5.55
2019-06-10T10:10:35.851Z,3.10
2019-06-10T10:13:22.518Z,3.20
2019-06-10T10:16:07.554Z,7.72
2019-06-10T10:19:00.220Z,7.55
2019-06-10T10:21:41.306Z,6.22
2019-06-10T10:24:25.878Z,3.45
2019-06-10T10:27:13.237Z,5.67
2019-06-10T10:29:57.563Z,8.88
2019-06-10T10:32:47.112Z,5.87
2019-06-10T10:35:32.628Z,5.78
2019-06-10T10:38:17.240Z,4.05
2019-06-10T10:41:04.477Z,4.58
2019-06-10T10:43:52.377Z,4.30
2019-06-10T10:46:36.695Z,4.10
2019-06-10T10:49:23.152Z,4.37
2019-06-10T10:52:07.887Z,6.35
2019-06-10T10:54:54.306Z,5.17
2019-06-10T10:57:40.282Z,5.75
2019-06-10T11:00:36.444Z,5.30
2019-06-10T11:03:16.791Z,5.03
2019-06-10T11:06:02.841Z,5.33
2019-06-10T11:08:48.308Z,3.87
2019-06-10T11:11:33.688Z,4.67
2019-06-10T11:14:19.147Z,4.95
2019-06-10T11:17:03.922Z,3.80
2019-06-10T11:19:49.324Z,3.87
2019-06-10T11:22:34.698Z,7.10
2019-06-10T11:25:19.869Z,5.20
2019-06-10T11:28:05.163Z,4.00
2019-06-10T11:30:52.693Z,7.85
2019-06-10T11:33:37.165Z,7.20
2019-06-10T11:36:22.796Z,5.97
2019-06-10T11:39:08.078Z,3.90
2019-06-10T11:41:53.347Z,4.67
2019-06-10T11:44:39.575Z,4.97
2019-06-10T11:47:24.726Z,6.10
2019-06-10T11:50:12.128Z,7.47
2019-06-10T11:53:00.544Z,4.78
2019-06-10T11:55:43.813Z,5.62
2019-06-10T11:58:28.642Z,3.95
2019-06-10T12:01:13.585Z,3.27
2019-06-10T12:04:00.145Z,4.95
2019-06-10T12:06:45.328Z,4.05
2019-06-10T12:09:30.238Z,5.17
2019-06-10T12:12:15.327Z,4.78
2019-06-10T12:15:01.460Z,4.25
2019-06-10T12:17:50.902Z,6.37
2019-06-10T12:20:33.547Z,5.42
2019-06-10T12:23:18.805Z,6.72
2019-06-10T12:26:05.451Z,3.58
2019-06-10T12:28:54.611Z,5.78
2019-06-10T12:31:38.239Z,4.55
2019-06-10T12:34:23.511Z,3.75
2019-06-10T12:37:15.527Z,12.15
2019-06-10T12:40:12.598Z,6.67
2019-06-10T12:42:59.246Z,7.95
2019-06-10T12:45:43.929Z,5.17
2019-06-10T12:48:29.148Z,3.75
2019-06-10T12:51:14.119Z,6.10
2019-06-10T12:53:59.425Z,5.05
2019-06-10T12:56:44.766Z,5.25
2019-06-10T12:59:32.497Z,6.15
2019-06-10T13:02:23.284Z,5.83
2019-06-10T13:05:07.033Z,7.97
2019-06-10T13:07:53.635Z,5.12
2019-06-10T13:10:43.092Z,4.75
2019-06-10T13:13:28.404Z,6.33
2019-06-10T13:16:14.329Z,6.55
2019-06-10T13:19:00.132Z,6.37
2019-06-10T13:21:45.001Z,7.22
2019-06-10T13:24:29.814Z,5.40
2019-06-10T13:27:17.343Z,4.92
2019-06-10T13:30:04.893Z,6.10
2019-06-10T13:32:52.552Z,6.15
2019-06-10T13:35:36.710Z,6.95
2019-06-10T13:38:25.402Z,6.25
2019-06-10T13:41:08.634Z,6.80
2019-06-10T13:43:53.644Z,6.62
2019-06-10T13:46:38.689Z,5.65
2019-06-10T13:49:25.564Z,4.30
2019-06-10T13:52:16.258Z,3.25
2019-06-10T13:54:57.119Z,4.90
2019-06-10T13:57:44.766Z,5.05
2019-06-10T14:00:40.773Z,7.70
2019-06-10T14:03:16.613Z,8.13
2019-06-10T14:06:11.325Z,5.47
2019-06-10T14:08:48.071Z,7.25
2019-06-10T14:11:34.002Z,4.42
2019-06-10T14:14:20.196Z,4.55
2019-06-10T14:17:07.451Z,5.03
2019-06-10T14:19:52.498Z,3.90
2019-06-10T14:22:37.454Z,4.72
2019-06-10T14:25:23.266Z,5.15
2019-06-10T14:28:10.595Z,4.05
2019-06-10T14:30:55.931Z,5.65
2019-06-10T14:33:42.942Z,7.33
2019-06-10T14:36:28.185Z,4.80
2019-06-10T14:39:15.630Z,4.75
2019-06-10T14:42:00.526Z,4.67
2019-06-10T14:44:45.474Z,5.47
2019-06-10T14:47:32.495Z,4.12
2019-06-10T14:50:18.557Z,3.47
2019-06-10T14:53:04.763Z,4.83
2019-06-10T14:55:52.868Z,6.22
2019-06-10T14:58:36.878Z,5.95
2019-06-10T15:01:25.559Z,7.47
2019-06-10T15:04:10.075Z,4.75
2019-06-10T15:06:55.563Z,5.65
2019-06-10T15:09:40.218Z,4.83
2019-06-10T15:12:25.122Z,3.92
2019-06-10T15:15:10.439Z,6.33
2019-06-10T15:17:55.082Z,5.00
2019-06-10T15:20:42.620Z,5.78
2019-06-10T15:23:26.623Z,6.35
2019-06-10T15:26:14.431Z,5.37
2019-06-10T15:28:58.466Z,4.72
2019-06-10T15:31:43.321Z,4.12
2019-06-10T15:34:28.026Z,4.45
2019-06-10T15:37:15.817Z,4.67
2019-06-10T15:39:59.648Z,10.82
2019-06-10T15:42:46.297Z,4.47
2019-06-10T15:45:32.489Z,5.60
2019-06-10T15:48:18.832Z,4.60
2019-06-10T15:51:04.671Z,4.20
2019-06-10T15:53:49.490Z,8.60
2019-06-10T15:56:45.625Z,6.35
2019-06-10T15:59:21.427Z,6.72
2019-06-10T16:02:06.721Z,6.65
2019-06-10T16:04:52.699Z,5.25
2019-06-10T16:07:37.891Z,4.90
2019-06-10T16:10:27.480Z,6.33
2019-06-10T16:13:10.503Z,6.72
2019-06-10T16:15:55.650Z,6.35
2019-06-10T16:18:42.382Z,3.92
2019-06-10T16:21:27.305Z,6.28
2019-06-10T16:24:13.675Z,5.58
2019-06-10T16:27:03.165Z,6.42
2019-06-10T16:29:47.280Z,7.55
2019-06-10T16:32:33.963Z,7.08
2019-06-10T16:35:18.950Z,7.25
2019-06-10T16:38:04.269Z,8.83
2019-06-10T16:40:49.062Z,9.90
2019-06-10T16:43:33.807Z,5.65
2019-06-10T16:46:18.476Z,6.37
2019-06-10T16:49:03.443Z,4.75
2019-06-10T16:51:48.686Z,8.85
2019-06-10T16:54:33.414Z,6.62
2019-06-10T16:57:18.216Z,6.67
2019-06-10T17:00:11.974Z,8.55
2019-06-10T17:02:55.141Z,6.28
2019-06-10T17:05:42.465Z,7.80
2019-06-10T17:08:30.289Z,5.83
2019-06-10T17:11:15.473Z,7.35
2019-06-10T17:14:00.329Z,5.53
2019-06-10T17:16:45.149Z,8.68
2019-06-10T17:19:30.361Z,7.50
2019-06-10T17:22:15.677Z,7.45
2019-06-10T17:25:00.510Z,5.95
2019-06-10T17:27:45.346Z,5.97
2019-06-10T17:30:34.635Z,6.55
2019-06-10T17:33:22.916Z,6.62
2019-06-10T17:36:08.255Z,8.30
2019-06-10T17:38:52.983Z,9.13
2019-06-10T17:41:37.707Z,10.20
2019-06-10T17:44:24.277Z,7.80
2019-06-10T17:47:09.824Z,7.80
2019-06-10T17:49:54.761Z,9.63
2019-06-10T17:52:39.483Z,9.60
2019-06-10T17:55:26.531Z,12.45
2019-06-10T17:58:13.062Z,11.88
2019-06-10T18:00:58.201Z,9.35
2019-06-10T18:03:43.835Z,9.85
2019-06-10T18:06:29.689Z,8.63
2019-06-10T18:09:14.942Z,8.45
2019-06-10T18:12:02.393Z,7.22
2019-06-10T18:14:47.467Z,6.60
2019-06-10T18:17:34.862Z,7.37
2019-06-10T18:20:19.306Z,8.53
2019-06-10T18:23:04.395Z,7.97
2019-06-10T18:25:49.317Z,8.00
2019-06-10T18:28:53.727Z,8.15
2019-06-10T18:31:23.400Z,6.75
2019-06-10T18:34:08.286Z,7.08
2019-06-10T18:36:53.211Z,5.83
2019-06-10T18:39:37.948Z,8.13
2019-06-10T18:42:23.641Z,9.63
2019-06-10T18:45:10.283Z,5.80
2019-06-10T18:47:57.096Z,8.45
2019-06-10T18:50:43.224Z,6.70
2019-06-10T18:53:28.485Z,6.35
2019-06-10T18:56:13.782Z,6.40
2019-06-10T18:59:13.430Z,8.40
2019-06-10T19:01:45.525Z,7.60
2019-06-10T19:04:35.013Z,6.80
2019-06-10T19:07:18.947Z,4.83
2019-06-10T19:10:06.528Z,6.85
2019-06-10T19:12:53.132Z,5.80
2019-06-10T19:15:39.780Z,5.80
2019-06-10T19:18:26.153Z,5.42
2019-06-10T19:21:12.829Z,7.22
2019-06-10T19:23:59.528Z,9.80
2019-06-10T19:26:45.157Z,8.83
2019-06-10T19:29:38.406Z,6.72
2019-06-10T19:32:17.559Z,7.10
2019-06-10T19:35:06.997Z,8.40
2019-06-10T19:37:51.698Z,5.50
2019-06-10T19:40:38.362Z,5.58
2019-06-10T19:43:25.117Z,6.65
2019-06-10T19:46:10.005Z,5.50
2019-06-10T19:48:59.497Z,6.72
2019-06-10T19:51:44.064Z,7.95
2019-06-10T19:54:28.430Z,6.83
2019-06-10T19:57:13.819Z,10.40
2019-06-10T20:00:08.510Z,6.80
2019-06-10T20:02:47.037Z,7.10
2019-06-10T20:05:34.315Z,9.15
2019-06-10T20:08:19.494Z,8.43
2019-06-10T20:11:04.518Z,10.18
2019-06-10T20:13:49.706Z,9.05
2019-06-10T20:16:37.749Z,8.63
2019-06-10T20:19:23.118Z,10.58
2019-06-10T20:22:08.593Z,9.20
2019-06-10T20:24:53.811Z,12.88
2019-06-10T20:27:39.703Z,10.68
2019-06-10T20:30:28.861Z,9.90
2019-06-10T20:33:14.669Z,13.55
2019-06-10T20:35:59.668Z,11.00
2019-06-10T20:38:48.191Z,9.60
2019-06-10T20:41:32.635Z,9.93
2019-06-10T20:44:17.406Z,10.28
2019-06-10T20:47:02.700Z,11.22
2019-06-10T20:49:51.408Z,9.13
2019-06-10T20:52:34.937Z,12.40
2019-06-10T20:55:20.198Z,10.65
2019-06-10T20:58:07.335Z,7.47
2019-06-10T21:00:56.865Z,9.50
2019-06-10T21:03:39.073Z,8.93
2019-06-10T21:06:26.106Z,12.43
2019-06-10T21:09:13.155Z,10.55
2019-06-10T21:11:57.695Z,9.03
2019-06-10T21:14:44.173Z,6.92
2019-06-10T21:17:29.478Z,5.50
2019-06-10T21:20:16.878Z,5.12
2019-06-10T21:23:03.048Z,8.13
2019-06-10T21:25:50.725Z,6.95
2019-06-10T21:28:35.380Z,6.25
2019-06-10T21:31:20.262Z,6.67
2019-06-10T21:34:05.089Z,5.70
2019-06-10T21:36:49.834Z,6.47
2019-06-10T21:39:34.691Z,6.40
2019-06-10T21:42:19.488Z,4.87
2019-06-10T21:45:04.968Z,4.90
2019-06-10T21:47:50.417Z,7.90
2019-06-10T21:50:35.576Z,6.53
2019-06-10T21:53:22.300Z,4.80
2019-06-10T21:56:07.126Z,9.40
2019-06-10T21:58:55.044Z,5.25
2019-06-10T22:01:38.934Z,5.45
2019-06-10T22:04:23.966Z,6.03
2019-06-10T22:07:08.698Z,6.45
2019-06-10T22:09:56.019Z,5.83
2019-06-10T22:12:42.154Z,11.40
2019-06-10T22:15:27.222Z,4.60
2019-06-10T22:18:12.688Z,6.22
2019-06-10T22:20:57.994Z,4.78
2019-06-10T22:23:44.600Z,5.70
2019-06-10T22:26:32.118Z,8.13
2019-06-10T22:29:16.466Z,3.77
2019-06-10T22:32:02.627Z,4.83
2019-06-10T22:34:47.691Z,5.60
2019-06-10T22:37:32.964Z,3.83
2019-06-10T22:40:18.121Z,2.30
2019-06-10T22:43:03.511Z,2.62
2019-06-10T22:45:49.472Z,2.87
2019-06-10T22:48:34.691Z,3.47
2019-06-10T22:51:19.431Z,3.33
2019-06-10T22:54:04.488Z,2.55
2019-06-10T22:56:49.478Z,3.20
2019-06-10T22:59:34.697Z,2.27
2019-06-10T23:02:19.421Z,6.50
2019-06-10T23:05:05.616Z,4.20
2019-06-10T23:07:53.261Z,2.72
2019-06-10T23:10:38.422Z,2.42
2019-06-10T23:13:23.321Z,3.27
2019-06-10T23:16:08.130Z,6.03
2019-06-10T23:18:55.001Z,2.65
2019-06-10T23:21:39.706Z,2.50
2019-06-10T23:24:24.562Z,4.00
2019-06-10T23:27:09.569Z,3.47
2019-06-10T23:29:56.010Z,3.25
2019-06-10T23:32:42.272Z,3.90
2019-06-10T23:35:27.652Z,3.92
2019-06-10T23:38:13.134Z,5.75
2019-06-10T23:40:58.896Z,8.35
2019-06-10T23:43:45.658Z,3.60
2019-06-10T23:46:31.979Z,3.08
2019-06-10T23:49:17.004Z,5.58
2019-06-10T23:52:04.962Z,3.30
2019-06-10T23:54:48.736Z,4.37
2019-06-10T23:57:33.606Z,4.10
